sensor_id;sensor_type;location;lat;lon;timestamp;temperature;humidity
68746;SHT31;65497;45.454;11.064;2022-12-10T00:00:30;7.72;83.75
68746;SHT31;65497;45.454;11.064;2022-12-10T00:03:03;7.73;83.84
68746;SHT31;65497;45.454;11.064;2022-12-10T00:05:36;7.70;83.82
68746;SHT31;65497;45.454;11.064;2022-12-10T00:08:08;7.69;83.81
68746;SHT31;65497;45.454;11.064;2022-12-10T00:10:41;7.72;83.85
68746;SHT31;65497;45.454;11.064;2022-12-10T00:13:13;7.76;83.92
68746;SHT31;65497;45.454;11.064;2022-12-10T00:15:46;7.78;83.77
68746;SHT31;65497;45.454;11.064;2022-12-10T00:18:19;7.80;83.80
68746;SHT31;65497;45.454;11.064;2022-12-10T00:20:52;7.79;83.75
68746;SHT31;65497;45.454;11.064;2022-12-10T00:23:24;7.76;83.87
68746;SHT31;65497;45.454;11.064;2022-12-10T00:26:02;7.80;83.83
68746;SHT31;65497;45.454;11.064;2022-12-10T00:28:37;7.82;83.80
68746;SHT31;65497;45.454;11.064;2022-12-10T00:31:12;7.79;83.85
68746;SHT31;65497;45.454;11.064;2022-12-10T00:33:47;7.79;83.86
68746;SHT31;65497;45.454;11.064;2022-12-10T00:36:22;7.75;83.99
68746;SHT31;65497;45.454;11.064;2022-12-10T00:38:59;7.72;84.07
68746;SHT31;65497;45.454;11.064;2022-12-10T00:41:33;7.69;84.02
68746;SHT31;65497;45.454;11.064;2022-12-10T00:44:06;7.70;84.09
68746;SHT31;65497;45.454;11.064;2022-12-10T00:46:38;7.73;84.06
68746;SHT31;65497;45.454;11.064;2022-12-10T00:49:12;7.75;84.15
68746;SHT31;65497;45.454;11.064;2022-12-10T00:51:44;7.72;84.17
68746;SHT31;65497;45.454;11.064;2022-12-10T00:54:17;7.69;84.10
68746;SHT31;65497;45.454;11.064;2022-12-10T00:56:49;7.69;84.18
68746;SHT31;65497;45.454;11.064;2022-12-10T00:59:22;7.72;84.20
68746;SHT31;65497;45.454;11.064;2022-12-10T01:01:54;7.75;84.16
68746;SHT31;65497;45.454;11.064;2022-12-10T01:04:28;7.75;84.11
68746;SHT31;65497;45.454;11.064;2022-12-10T01:07:00;7.71;84.18
68746;SHT31;65497;45.454;11.064;2022-12-10T01:09:38;7.71;84.25
68746;SHT31;65497;45.454;11.064;2022-12-10T01:12:10;7.69;84.36
68746;SHT31;65497;45.454;11.064;2022-12-10T01:14:43;7.72;84.37
68746;SHT31;65497;45.454;11.064;2022-12-10T01:17:16;7.78;84.24
68746;SHT31;65497;45.454;11.064;2022-12-10T01:19:49;7.82;84.06
68746;SHT31;65497;45.454;11.064;2022-12-10T01:22:22;7.84;84.12
68746;SHT31;65497;45.454;11.064;2022-12-10T01:24:54;7.89;84.06
68746;SHT31;65497;45.454;11.064;2022-12-10T01:27:27;7.93;83.88
68746;SHT31;65497;45.454;11.064;2022-12-10T01:30:00;7.95;83.67
68746;SHT31;65497;45.454;11.064;2022-12-10T01:32:36;7.95;83.56
68746;SHT31;65497;45.454;11.064;2022-12-10T01:35:09;7.88;83.58
68746;SHT31;65497;45.454;11.064;2022-12-10T01:37:41;7.82;83.91
68746;SHT31;65497;45.454;11.064;2022-12-10T01:40:14;7.80;83.92
68746;SHT31;65497;45.454;11.064;2022-12-10T01:42:47;7.78;84.09
68746;SHT31;65497;45.454;11.064;2022-12-10T01:45:20;7.80;83.92
68746;SHT31;65497;45.454;11.064;2022-12-10T01:47:53;7.80;83.92
68746;SHT31;65497;45.454;11.064;2022-12-10T01:50:33;7.81;83.93
68746;SHT31;65497;45.454;11.064;2022-12-10T01:53:06;7.83;84.00
68746;SHT31;65497;45.454;11.064;2022-12-10T01:55:44;7.86;83.91
68746;SHT31;65497;45.454;11.064;2022-12-10T01:58:19;7.88;83.74
68746;SHT31;65497;45.454;11.064;2022-12-10T02:00:55;7.85;83.69
68746;SHT31;65497;45.454;11.064;2022-12-10T02:03:40;7.75;83.78
68746;SHT31;65497;45.454;11.064;2022-12-10T02:06:30;7.65;84.02
68746;SHT31;65497;45.454;11.064;2022-12-10T02:09:17;7.65;84.20
68746;SHT31;65497;45.454;11.064;2022-12-10T02:12:01;7.69;84.26
68746;SHT31;65497;45.454;11.064;2022-12-10T02:14:46;7.70;84.11
68746;SHT31;65497;45.454;11.064;2022-12-10T02:17:29;7.68;84.15
68746;SHT31;65497;45.454;11.064;2022-12-10T02:20:10;7.60;84.30
68746;SHT31;65497;45.454;11.064;2022-12-10T02:22:50;7.58;84.48
68746;SHT31;65497;45.454;11.064;2022-12-10T02:25:31;7.61;84.44
68746;SHT31;65497;45.454;11.064;2022-12-10T02:28:17;7.59;84.43
68746;SHT31;65497;45.454;11.064;2022-12-10T02:30:57;7.55;84.50
68746;SHT31;65497;45.454;11.064;2022-12-10T02:33:33;7.52;84.57
68746;SHT31;65497;45.454;11.064;2022-12-10T02:36:11;7.51;84.85
68746;SHT31;65497;45.454;11.064;2022-12-10T02:38:48;7.45;84.92
68746;SHT31;65497;45.454;11.064;2022-12-10T02:41:24;7.41;85.00
68746;SHT31;65497;45.454;11.064;2022-12-10T02:44:05;7.37;85.07
68746;SHT31;65497;45.454;11.064;2022-12-10T02:46:45;7.35;85.10
68746;SHT31;65497;45.454;11.064;2022-12-10T02:49:23;7.31;85.19
68746;SHT31;65497;45.454;11.064;2022-12-10T02:52:00;7.26;85.33
68746;SHT31;65497;45.454;11.064;2022-12-10T02:54:44;7.24;85.39
68746;SHT31;65497;45.454;11.064;2022-12-10T02:57:26;7.23;85.40
68746;SHT31;65497;45.454;11.064;2022-12-10T03:00:11;7.21;85.31
68746;SHT31;65497;45.454;11.064;2022-12-10T03:03:06;7.24;85.39
68746;SHT31;65497;45.454;11.064;2022-12-10T03:06:02;7.28;85.15
68746;SHT31;65497;45.454;11.064;2022-12-10T03:08:47;7.35;85.26
68746;SHT31;65497;45.454;11.064;2022-12-10T03:11:25;7.45;85.07
68746;SHT31;65497;45.454;11.064;2022-12-10T03:13:59;7.50;84.90
68746;SHT31;65497;45.454;11.064;2022-12-10T03:16:39;7.51;84.75
68746;SHT31;65497;45.454;11.064;2022-12-10T03:19:18;7.44;84.83
68746;SHT31;65497;45.454;11.064;2022-12-10T03:21:57;7.44;85.00
68746;SHT31;65497;45.454;11.064;2022-12-10T03:24:33;7.40;85.23
68746;SHT31;65497;45.454;11.064;2022-12-10T03:27:09;7.34;85.52
68746;SHT31;65497;45.454;11.064;2022-12-10T03:29:45;7.30;85.58
68746;SHT31;65497;45.454;11.064;2022-12-10T03:32:22;7.29;85.60
68746;SHT31;65497;45.454;11.064;2022-12-10T03:34:58;7.32;85.81
68746;SHT31;65497;45.454;11.064;2022-12-10T03:37:33;7.32;85.87
68746;SHT31;65497;45.454;11.064;2022-12-10T03:40:07;7.34;85.88
68746;SHT31;65497;45.454;11.064;2022-12-10T03:42:42;7.34;86.02
68746;SHT31;65497;45.454;11.064;2022-12-10T03:45:15;7.30;86.13
68746;SHT31;65497;45.454;11.064;2022-12-10T03:47:48;7.26;86.16
68746;SHT31;65497;45.454;11.064;2022-12-10T03:50:21;7.31;86.23
68746;SHT31;65497;45.454;11.064;2022-12-10T03:52:53;7.33;85.93
68746;SHT31;65497;45.454;11.064;2022-12-10T03:55:26;7.30;86.10
68746;SHT31;65497;45.454;11.064;2022-12-10T03:58:00;7.30;86.07
68746;SHT31;65497;45.454;11.064;2022-12-10T04:00:33;7.31;85.94
68746;SHT31;65497;45.454;11.064;2022-12-10T04:03:06;7.30;85.88
68746;SHT31;65497;45.454;11.064;2022-12-10T04:05:38;7.32;85.85
68746;SHT31;65497;45.454;11.064;2022-12-10T04:08:11;7.32;85.73
68746;SHT31;65497;45.454;11.064;2022-12-10T04:10:43;7.29;85.70
68746;SHT31;65497;45.454;11.064;2022-12-10T04:13:16;7.30;85.62
68746;SHT31;65497;45.454;11.064;2022-12-10T04:16:07;7.32;85.39
68746;SHT31;65497;45.454;11.064;2022-12-10T04:18:58;7.31;85.38
68746;SHT31;65497;45.454;11.064;2022-12-10T04:21:34;7.30;85.22
68746;SHT31;65497;45.454;11.064;2022-12-10T04:24:28;7.26;85.33
68746;SHT31;65497;45.454;11.064;2022-12-10T04:27:28;7.21;85.48
68746;SHT31;65497;45.454;11.064;2022-12-10T04:30:04;7.17;85.60
68746;SHT31;65497;45.454;11.064;2022-12-10T04:32:41;7.21;85.70
68746;SHT31;65497;45.454;11.064;2022-12-10T04:35:14;7.24;85.49
68746;SHT31;65497;45.454;11.064;2022-12-10T04:37:46;7.26;85.40
68746;SHT31;65497;45.454;11.064;2022-12-10T04:40:19;7.31;85.37
68746;SHT31;65497;45.454;11.064;2022-12-10T04:42:51;7.35;85.27
68746;SHT31;65497;45.454;11.064;2022-12-10T04:45:24;7.32;85.08
68746;SHT31;65497;45.454;11.064;2022-12-10T04:47:56;7.31;85.20
68746;SHT31;65497;45.454;11.064;2022-12-10T04:50:29;7.36;85.18
68746;SHT31;65497;45.454;11.064;2022-12-10T04:53:02;7.44;84.92
68746;SHT31;65497;45.454;11.064;2022-12-10T04:55:34;7.45;84.67
68746;SHT31;65497;45.454;11.064;2022-12-10T04:58:07;7.46;84.71
68746;SHT31;65497;45.454;11.064;2022-12-10T05:00:39;7.46;84.67
68746;SHT31;65497;45.454;11.064;2022-12-10T05:03:11;7.42;84.66
68746;SHT31;65497;45.454;11.064;2022-12-10T05:05:44;7.39;84.79
68746;SHT31;65497;45.454;11.064;2022-12-10T05:08:17;7.38;84.79
68746;SHT31;65497;45.454;11.064;2022-12-10T05:10:49;7.43;84.75
68746;SHT31;65497;45.454;11.064;2022-12-10T05:13:22;7.51;84.76
68746;SHT31;65497;45.454;11.064;2022-12-10T05:15:55;7.63;84.70
68746;SHT31;65497;45.454;11.064;2022-12-10T05:18:30;7.66;84.22
68746;SHT31;65497;45.454;11.064;2022-12-10T05:21:04;7.62;84.35
68746;SHT31;65497;45.454;11.064;2022-12-10T05:23:41;7.61;84.47
68746;SHT31;65497;45.454;11.064;2022-12-10T05:26:18;7.60;84.32
68746;SHT31;65497;45.454;11.064;2022-12-10T05:28:54;7.55;84.26
68746;SHT31;65497;45.454;11.064;2022-12-10T05:31:28;7.55;84.31
68746;SHT31;65497;45.454;11.064;2022-12-10T05:34:01;7.55;84.27
68746;SHT31;65497;45.454;11.064;2022-12-10T05:36:36;7.55;84.24
68746;SHT31;65497;45.454;11.064;2022-12-10T05:39:09;7.51;84.32
68746;SHT31;65497;45.454;11.064;2022-12-10T05:41:43;7.47;84.36
68746;SHT31;65497;45.454;11.064;2022-12-10T05:44:15;7.41;84.52
68746;SHT31;65497;45.454;11.064;2022-12-10T05:46:48;7.39;84.54
68746;SHT31;65497;45.454;11.064;2022-12-10T05:49:22;7.35;84.66
68746;SHT31;65497;45.454;11.064;2022-12-10T05:51:55;7.29;84.88
68746;SHT31;65497;45.454;11.064;2022-12-10T05:54:27;7.26;85.06
68746;SHT31;65497;45.454;11.064;2022-12-10T05:57:00;7.30;85.13
68746;SHT31;65497;45.454;11.064;2022-12-10T05:59:33;7.34;85.10
68746;SHT31;65497;45.454;11.064;2022-12-10T06:02:06;7.40;84.99
68746;SHT31;65497;45.454;11.064;2022-12-10T06:04:39;7.36;84.90
68746;SHT31;65497;45.454;11.064;2022-12-10T06:07:12;7.33;84.96
68746;SHT31;65497;45.454;11.064;2022-12-10T06:09:44;7.30;85.05
68746;SHT31;65497;45.454;11.064;2022-12-10T06:12:17;7.36;85.22
68746;SHT31;65497;45.454;11.064;2022-12-10T06:14:50;7.46;85.11
68746;SHT31;65497;45.454;11.064;2022-12-10T06:17:23;7.52;84.72
68746;SHT31;65497;45.454;11.064;2022-12-10T06:19:55;7.52;84.80
68746;SHT31;65497;45.454;11.064;2022-12-10T06:22:28;7.54;84.69
68746;SHT31;65497;45.454;11.064;2022-12-10T06:25:00;7.56;84.62
68746;SHT31;65497;45.454;11.064;2022-12-10T06:27:35;7.60;84.48
68746;SHT31;65497;45.454;11.064;2022-12-10T06:30:09;7.63;84.38
68746;SHT31;65497;45.454;11.064;2022-12-10T06:32:42;7.65;84.29
68746;SHT31;65497;45.454;11.064;2022-12-10T06:35:15;7.64;84.23
68746;SHT31;65497;45.454;11.064;2022-12-10T06:37:48;7.57;84.19
68746;SHT31;65497;45.454;11.064;2022-12-10T06:40:21;7.52;84.47
68746;SHT31;65497;45.454;11.064;2022-12-10T06:42:54;7.48;84.56
68746;SHT31;65497;45.454;11.064;2022-12-10T06:45:27;7.48;84.72
68746;SHT31;65497;45.454;11.064;2022-12-10T06:48:00;7.53;84.68
68746;SHT31;65497;45.454;11.064;2022-12-10T06:50:33;7.51;84.60
68746;SHT31;65497;45.454;11.064;2022-12-10T06:53:06;7.51;84.50
68746;SHT31;65497;45.454;11.064;2022-12-10T06:55:39;7.49;84.58
68746;SHT31;65497;45.454;11.064;2022-12-10T06:58:11;7.46;84.67
68746;SHT31;65497;45.454;11.064;2022-12-10T07:00:44;7.43;84.82
68746;SHT31;65497;45.454;11.064;2022-12-10T07:03:16;7.39;84.99
68746;SHT31;65497;45.454;11.064;2022-12-10T07:05:50;7.34;85.20
68746;SHT31;65497;45.454;11.064;2022-12-10T07:08:25;7.32;85.39
68746;SHT31;65497;45.454;11.064;2022-12-10T07:10:58;7.35;85.47
68746;SHT31;65497;45.454;11.064;2022-12-10T07:13:35;7.38;85.42
68746;SHT31;65497;45.454;11.064;2022-12-10T07:16:12;7.44;85.45
68746;SHT31;65497;45.454;11.064;2022-12-10T07:18:48;7.52;85.45
68746;SHT31;65497;45.454;11.064;2022-12-10T07:21:22;7.60;85.27
68746;SHT31;65497;45.454;11.064;2022-12-10T07:23:59;7.63;85.30
68746;SHT31;65497;45.454;11.064;2022-12-10T07:26:34;7.70;85.26
68746;SHT31;65497;45.454;11.064;2022-12-10T07:29:11;7.77;85.20
68746;SHT31;65497;45.454;11.064;2022-12-10T07:31:47;7.86;84.98
68746;SHT31;65497;45.454;11.064;2022-12-10T07:34:19;7.95;84.72
68746;SHT31;65497;45.454;11.064;2022-12-10T07:36:52;8.06;84.47
68746;SHT31;65497;45.454;11.064;2022-12-10T07:39:25;8.13;84.16
68746;SHT31;65497;45.454;11.064;2022-12-10T07:41:57;8.18;84.00
68746;SHT31;65497;45.454;11.064;2022-12-10T07:44:30;8.22;83.90
68746;SHT31;65497;45.454;11.064;2022-12-10T07:47:03;8.22;83.79
68746;SHT31;65497;45.454;11.064;2022-12-10T07:49:36;8.16;83.86
68746;SHT31;65497;45.454;11.064;2022-12-10T07:52:10;8.12;83.97
68746;SHT31;65497;45.454;11.064;2022-12-10T07:54:42;8.12;83.94
68746;SHT31;65497;45.454;11.064;2022-12-10T07:57:15;8.10;83.95
68746;SHT31;65497;45.454;11.064;2022-12-10T07:59:48;8.11;83.92
68746;SHT31;65497;45.454;11.064;2022-12-10T08:02:20;8.10;83.84
68746;SHT31;65497;45.454;11.064;2022-12-10T08:04:53;8.09;83.93
68746;SHT31;65497;45.454;11.064;2022-12-10T08:07:25;8.06;83.87
68746;SHT31;65497;45.454;11.064;2022-12-10T08:09:58;8.06;83.85
68746;SHT31;65497;45.454;11.064;2022-12-10T08:12:31;8.06;83.95
68746;SHT31;65497;45.454;11.064;2022-12-10T08:15:04;8.06;84.06
68746;SHT31;65497;45.454;11.064;2022-12-10T08:17:38;8.06;84.05
68746;SHT31;65497;45.454;11.064;2022-12-10T08:20:11;8.07;84.05
68746;SHT31;65497;45.454;11.064;2022-12-10T08:22:44;8.08;84.12
68746;SHT31;65497;45.454;11.064;2022-12-10T08:25:16;8.10;84.17
68746;SHT31;65497;45.454;11.064;2022-12-10T08:27:49;8.14;84.02
68746;SHT31;65497;45.454;11.064;2022-12-10T08:30:21;8.22;84.04
68746;SHT31;65497;45.454;11.064;2022-12-10T08:32:54;8.33;83.92
68746;SHT31;65497;45.454;11.064;2022-12-10T08:35:26;8.43;83.58
68746;SHT31;65497;45.454;11.064;2022-12-10T08:37:59;8.51;83.29
68746;SHT31;65497;45.454;11.064;2022-12-10T08:40:32;8.56;83.07
68746;SHT31;65497;45.454;11.064;2022-12-10T08:43:09;8.56;83.08
68746;SHT31;65497;45.454;11.064;2022-12-10T08:45:42;8.61;82.97
68746;SHT31;65497;45.454;11.064;2022-12-10T08:48:14;8.69;82.79
68746;SHT31;65497;45.454;11.064;2022-12-10T08:50:47;8.74;82.68
68746;SHT31;65497;45.454;11.064;2022-12-10T08:53:20;8.72;82.51
68746;SHT31;65497;45.454;11.064;2022-12-10T08:55:53;8.70;82.79
68746;SHT31;65497;45.454;11.064;2022-12-10T08:58:25;8.63;82.68
68746;SHT31;65497;45.454;11.064;2022-12-10T09:00:58;8.50;82.85
68746;SHT31;65497;45.454;11.064;2022-12-10T09:03:36;8.44;83.16
68746;SHT31;65497;45.454;11.064;2022-12-10T09:06:10;8.41;83.21
68746;SHT31;65497;45.454;11.064;2022-12-10T09:08:45;8.47;83.68
68746;SHT31;65497;45.454;11.064;2022-12-10T09:11:19;8.57;83.41
68746;SHT31;65497;45.454;11.064;2022-12-10T09:13:54;8.61;83.26
68746;SHT31;65497;45.454;11.064;2022-12-10T09:16:31;8.66;83.05
68746;SHT31;65497;45.454;11.064;2022-12-10T09:19:07;8.67;82.97
68746;SHT31;65497;45.454;11.064;2022-12-10T09:21:46;8.57;82.95
68746;SHT31;65497;45.454;11.064;2022-12-10T09:24:19;8.53;83.26
68746;SHT31;65497;45.454;11.064;2022-12-10T09:26:51;8.60;83.29
68746;SHT31;65497;45.454;11.064;2022-12-10T09:29:24;8.64;83.30
68746;SHT31;65497;45.454;11.064;2022-12-10T09:31:56;8.69;83.26
68746;SHT31;65497;45.454;11.064;2022-12-10T09:34:29;8.65;83.10
68746;SHT31;65497;45.454;11.064;2022-12-10T09:37:02;8.58;83.20
68746;SHT31;65497;45.454;11.064;2022-12-10T09:39:35;8.60;83.32
68746;SHT31;65497;45.454;11.064;2022-12-10T09:42:12;8.65;83.27
68746;SHT31;65497;45.454;11.064;2022-12-10T09:45:02;8.72;83.12
68746;SHT31;65497;45.454;11.064;2022-12-10T09:47:49;8.75;82.89
68746;SHT31;65497;45.454;11.064;2022-12-10T09:50:32;8.76;82.85
68746;SHT31;65497;45.454;11.064;2022-12-10T09:53:17;8.73;82.86
68746;SHT31;65497;45.454;11.064;2022-12-10T09:55:53;8.68;82.77
68746;SHT31;65497;45.454;11.064;2022-12-10T09:58:27;8.60;82.89
68746;SHT31;65497;45.454;11.064;2022-12-10T10:01:01;8.60;83.24
68746;SHT31;65497;45.454;11.064;2022-12-10T10:03:41;8.61;83.20
68746;SHT31;65497;45.454;11.064;2022-12-10T10:06:16;8.63;83.18
68746;SHT31;65497;45.454;11.064;2022-12-10T10:08:51;8.65;83.24
68746;SHT31;65497;45.454;11.064;2022-12-10T10:11:28;8.64;83.24
68746;SHT31;65497;45.454;11.064;2022-12-10T10:14:05;8.62;83.35
68746;SHT31;65497;45.454;11.064;2022-12-10T10:16:47;8.60;83.39
68746;SHT31;65497;45.454;11.064;2022-12-10T10:19:26;8.61;83.47
68746;SHT31;65497;45.454;11.064;2022-12-10T10:22:05;8.64;83.66
68746;SHT31;65497;45.454;11.064;2022-12-10T10:24:41;8.70;83.70
68746;SHT31;65497;45.454;11.064;2022-12-10T10:27:15;8.74;83.66
68746;SHT31;65497;45.454;11.064;2022-12-10T10:29:55;8.80;83.68
68746;SHT31;65497;45.454;11.064;2022-12-10T10:32:45;8.92;83.56
68746;SHT31;65497;45.454;11.064;2022-12-10T10:35:26;9.08;83.37
68746;SHT31;65497;45.454;11.064;2022-12-10T10:38:04;9.19;82.76
68746;SHT31;65497;45.454;11.064;2022-12-10T10:40:43;9.13;82.56
68746;SHT31;65497;45.454;11.064;2022-12-10T10:43:21;9.02;82.76
68746;SHT31;65497;45.454;11.064;2022-12-10T10:46:01;8.97;83.14
68746;SHT31;65497;45.454;11.064;2022-12-10T10:48:40;8.93;82.99
68746;SHT31;65497;45.454;11.064;2022-12-10T10:51:18;8.95;83.22
68746;SHT31;65497;45.454;11.064;2022-12-10T10:53:52;8.98;83.36
68746;SHT31;65497;45.454;11.064;2022-12-10T10:56:37;9.01;83.15
68746;SHT31;65497;45.454;11.064;2022-12-10T10:59:29;9.02;83.02
68746;SHT31;65497;45.454;11.064;2022-12-10T11:02:09;9.09;83.08
68746;SHT31;65497;45.454;11.064;2022-12-10T11:04:52;9.13;82.97
68746;SHT31;65497;45.454;11.064;2022-12-10T11:07:33;9.17;82.72
68746;SHT31;65497;45.454;11.064;2022-12-10T11:10:16;9.21;82.89
68746;SHT31;65497;45.454;11.064;2022-12-10T11:12:55;9.23;82.85
68746;SHT31;65497;45.454;11.064;2022-12-10T11:15:34;9.26;82.72
68746;SHT31;65497;45.454;11.064;2022-12-10T11:18:22;9.29;82.48
68746;SHT31;65497;45.454;11.064;2022-12-10T11:21:02;9.29;82.47
68746;SHT31;65497;45.454;11.064;2022-12-10T11:23:46;9.30;82.41
68746;SHT31;65497;45.454;11.064;2022-12-10T11:26:30;9.38;82.14
68746;SHT31;65497;45.454;11.064;2022-12-10T11:29:22;9.45;81.63
68746;SHT31;65497;45.454;11.064;2022-12-10T11:32:16;9.51;81.67
68746;SHT31;65497;45.454;11.064;2022-12-10T11:35:23;9.56;81.31
68746;SHT31;65497;45.454;11.064;2022-12-10T11:38:17;9.58;81.28
68746;SHT31;65497;45.454;11.064;2022-12-10T11:40:59;9.60;81.21
68746;SHT31;65497;45.454;11.064;2022-12-10T11:47:04;9.60;81.07
68746;SHT31;65497;45.454;11.064;2022-12-10T11:50:00;9.57;80.90
68746;SHT31;65497;45.454;11.064;2022-12-10T11:52:51;9.60;80.88
68746;SHT31;65497;45.454;11.064;2022-12-10T11:55:42;9.65;80.77
68746;SHT31;65497;45.454;11.064;2022-12-10T11:58:31;9.68;80.79
68746;SHT31;65497;45.454;11.064;2022-12-10T12:01:23;9.65;80.67
68746;SHT31;65497;45.454;11.064;2022-12-10T12:04:25;9.61;81.15
68746;SHT31;65497;45.454;11.064;2022-12-10T12:07:14;9.59;81.08
68746;SHT31;65497;45.454;11.064;2022-12-10T12:13:29;9.59;80.71
68746;SHT31;65497;45.454;11.064;2022-12-10T12:16:10;9.60;80.85
68746;SHT31;65497;45.454;11.064;2022-12-10T12:18:50;9.62;80.87
68746;SHT31;65497;45.454;11.064;2022-12-10T12:21:28;9.65;80.96
68746;SHT31;65497;45.454;11.064;2022-12-10T12:24:03;9.66;81.01
68746;SHT31;65497;45.454;11.064;2022-12-10T12:26:45;9.66;81.04
68746;SHT31;65497;45.454;11.064;2022-12-10T12:29:27;9.68;80.81
68746;SHT31;65497;45.454;11.064;2022-12-10T12:32:07;9.76;80.76
68746;SHT31;65497;45.454;11.064;2022-12-10T12:34:51;9.85;80.41
68746;SHT31;65497;45.454;11.064;2022-12-10T12:37:32;9.91;80.17
68746;SHT31;65497;45.454;11.064;2022-12-10T12:40:12;9.91;80.54
68746;SHT31;65497;45.454;11.064;2022-12-10T12:42:53;9.88;80.71
68746;SHT31;65497;45.454;11.064;2022-12-10T12:45:33;9.85;80.88
68746;SHT31;65497;45.454;11.064;2022-12-10T12:48:17;9.88;80.82
68746;SHT31;65497;45.454;11.064;2022-12-10T12:51:00;9.95;80.66
68746;SHT31;65497;45.454;11.064;2022-12-10T12:53:41;10.04;80.52
68746;SHT31;65497;45.454;11.064;2022-12-10T12:56:16;10.06;80.35
68746;SHT31;65497;45.454;11.064;2022-12-10T12:59:01;10.05;80.52
68746;SHT31;65497;45.454;11.064;2022-12-10T13:01:41;10.04;80.38
68746;SHT31;65497;45.454;11.064;2022-12-10T13:04:22;9.98;80.42
68746;SHT31;65497;45.454;11.064;2022-12-10T13:10:17;9.95;80.46
68746;SHT31;65497;45.454;11.064;2022-12-10T13:13:16;9.94;80.25
68746;SHT31;65497;45.454;11.064;2022-12-10T13:19:26;9.89;80.33
68746;SHT31;65497;45.454;11.064;2022-12-10T13:22:03;9.87;80.41
68746;SHT31;65497;45.454;11.064;2022-12-10T13:25:08;9.86;80.49
68746;SHT31;65497;45.454;11.064;2022-12-10T13:27:55;9.88;80.64
68746;SHT31;65497;45.454;11.064;2022-12-10T13:34:21;9.90;80.65
68746;SHT31;65497;45.454;11.064;2022-12-10T13:37:13;9.89;80.31
68746;SHT31;65497;45.454;11.064;2022-12-10T13:43:19;9.78;79.99
68746;SHT31;65497;45.454;11.064;2022-12-10T13:46:22;9.74;80.36
68746;SHT31;65497;45.454;11.064;2022-12-10T13:48:59;9.72;80.40
68746;SHT31;65497;45.454;11.064;2022-12-10T13:51:38;9.69;80.30
68746;SHT31;65497;45.454;11.064;2022-12-10T13:54:31;9.69;80.52
68746;SHT31;65497;45.454;11.064;2022-12-10T13:57:32;9.72;80.52
68746;SHT31;65497;45.454;11.064;2022-12-10T14:00:32;9.79;80.60
68746;SHT31;65497;45.454;11.064;2022-12-10T14:03:22;9.85;80.49
68746;SHT31;65497;45.454;11.064;2022-12-10T14:06:21;9.90;80.47
68746;SHT31;65497;45.454;11.064;2022-12-10T14:08:57;9.91;80.48
68746;SHT31;65497;45.454;11.064;2022-12-10T14:11:36;9.94;80.53
68746;SHT31;65497;45.454;11.064;2022-12-10T14:14:16;9.92;80.08
68746;SHT31;65497;45.454;11.064;2022-12-10T14:17:00;9.96;80.17
68746;SHT31;65497;45.454;11.064;2022-12-10T14:19:40;9.98;80.11
68746;SHT31;65497;45.454;11.064;2022-12-10T14:22:17;9.94;79.77
68746;SHT31;65497;45.454;11.064;2022-12-10T14:25:00;9.95;79.92
68746;SHT31;65497;45.454;11.064;2022-12-10T14:27:35;9.94;79.98
68746;SHT31;65497;45.454;11.064;2022-12-10T14:30:14;9.95;79.87
68746;SHT31;65497;45.454;11.064;2022-12-10T14:32:49;9.97;79.73
68746;SHT31;65497;45.454;11.064;2022-12-10T14:35:28;9.96;79.89
68746;SHT31;65497;45.454;11.064;2022-12-10T14:38:00;9.99;80.26
68746;SHT31;65497;45.454;11.064;2022-12-10T14:40:36;10.01;80.39
68746;SHT31;65497;45.454;11.064;2022-12-10T14:43:13;10.02;80.32
68746;SHT31;65497;45.454;11.064;2022-12-10T14:45:51;10.08;80.01
68746;SHT31;65497;45.454;11.064;2022-12-10T14:48:28;10.10;79.91
68746;SHT31;65497;45.454;11.064;2022-12-10T14:51:12;10.13;79.76
68746;SHT31;65497;45.454;11.064;2022-12-10T14:53:48;10.15;79.56
68746;SHT31;65497;45.454;11.064;2022-12-10T14:56:25;10.15;79.62
68746;SHT31;65497;45.454;11.064;2022-12-10T14:59:04;10.15;79.59
68746;SHT31;65497;45.454;11.064;2022-12-10T15:01:42;10.10;79.37
68746;SHT31;65497;45.454;11.064;2022-12-10T15:04:19;10.03;79.64
68746;SHT31;65497;45.454;11.064;2022-12-10T15:06:54;9.93;79.76
68746;SHT31;65497;45.454;11.064;2022-12-10T15:09:30;9.92;80.11
68746;SHT31;65497;45.454;11.064;2022-12-10T15:12:03;9.94;80.22
68746;SHT31;65497;45.454;11.064;2022-12-10T15:14:48;9.95;80.11
68746;SHT31;65497;45.454;11.064;2022-12-10T15:17:38;9.97;80.04
68746;SHT31;65497;45.454;11.064;2022-12-10T15:20:23;9.97;80.02
68746;SHT31;65497;45.454;11.064;2022-12-10T15:23:12;9.97;80.11
68746;SHT31;65497;45.454;11.064;2022-12-10T15:25:58;9.89;80.43
68746;SHT31;65497;45.454;11.064;2022-12-10T15:28:41;9.84;80.72
68746;SHT31;65497;45.454;11.064;2022-12-10T15:31:15;9.82;80.90
68746;SHT31;65497;45.454;11.064;2022-12-10T15:34:00;9.83;80.98
68746;SHT31;65497;45.454;11.064;2022-12-10T15:36:40;9.84;80.85
68746;SHT31;65497;45.454;11.064;2022-12-10T15:39:20;9.85;80.94
68746;SHT31;65497;45.454;11.064;2022-12-10T15:41:58;9.85;81.05
68746;SHT31;65497;45.454;11.064;2022-12-10T15:44:36;9.83;81.24
68746;SHT31;65497;45.454;11.064;2022-12-10T15:47:12;9.80;81.34
68746;SHT31;65497;45.454;11.064;2022-12-10T15:49:49;9.80;81.48
68746;SHT31;65497;45.454;11.064;2022-12-10T15:52:25;9.80;81.53
68746;SHT31;65497;45.454;11.064;2022-12-10T15:54:59;9.81;81.55
68746;SHT31;65497;45.454;11.064;2022-12-10T15:57:33;9.82;81.64
68746;SHT31;65497;45.454;11.064;2022-12-10T16:00:16;9.83;81.69
68746;SHT31;65497;45.454;11.064;2022-12-10T16:02:52;9.86;81.67
68746;SHT31;65497;45.454;11.064;2022-12-10T16:05:30;9.89;81.52
68746;SHT31;65497;45.454;11.064;2022-12-10T16:08:09;9.90;81.47
68746;SHT31;65497;45.454;11.064;2022-12-10T16:10:49;9.88;81.63
68746;SHT31;65497;45.454;11.064;2022-12-10T16:13:24;9.83;81.81
68746;SHT31;65497;45.454;11.064;2022-12-10T16:16:03;9.79;81.93
68746;SHT31;65497;45.454;11.064;2022-12-10T16:18:40;9.77;82.00
68746;SHT31;65497;45.454;11.064;2022-12-10T16:21:13;9.72;82.07
68746;SHT31;65497;45.454;11.064;2022-12-10T16:23:46;9.70;82.19
68746;SHT31;65497;45.454;11.064;2022-12-10T16:26:21;9.71;82.20
68746;SHT31;65497;45.454;11.064;2022-12-10T16:28:53;9.73;82.27
68746;SHT31;65497;45.454;11.064;2022-12-10T16:31:26;9.79;82.14
68746;SHT31;65497;45.454;11.064;2022-12-10T16:33:59;9.87;81.90
68746;SHT31;65497;45.454;11.064;2022-12-10T16:36:32;9.94;81.69
68746;SHT31;65497;45.454;11.064;2022-12-10T16:39:04;9.96;81.59
68746;SHT31;65497;45.454;11.064;2022-12-10T16:41:37;9.96;81.47
68746;SHT31;65497;45.454;11.064;2022-12-10T16:44:09;9.93;81.44
68746;SHT31;65497;45.454;11.064;2022-12-10T16:46:42;9.90;81.54
68746;SHT31;65497;45.454;11.064;2022-12-10T16:49:14;9.87;81.57
68746;SHT31;65497;45.454;11.064;2022-12-10T16:51:47;9.83;81.64
68746;SHT31;65497;45.454;11.064;2022-12-10T16:54:21;9.78;81.81